createdAt,value
2022-08-31T00:00:13.063Z,58.30
2022-08-31T00:02:58.463Z,58.40
2022-08-31T00:05:25.370Z,58.40
2022-08-31T00:07:52.802Z,58.50
2022-08-31T00:10:32.807Z,59.40
2022-08-31T00:13:04.925Z,58.80
2022-08-31T00:15:35.182Z,58.90
2022-08-31T00:18:02.799Z,59.00
2022-08-31T00:20:33.784Z,59.10
2022-08-31T00:23:03.197Z,59.20
2022-08-31T00:25:30.337Z,59.30
2022-08-31T00:27:57.559Z,59.20
2022-08-31T00:30:24.990Z,59.40
2022-08-31T00:32:52.167Z,59.40
2022-08-31T00:35:19.197Z,59.60
2022-08-31T00:37:46.018Z,59.70
2022-08-31T00:40:12.968Z,59.70
2022-08-31T00:42:40.154Z,59.80
2022-08-31T00:45:08.160Z,59.80
2022-08-31T00:47:35.093Z,59.90
2022-08-31T00:50:04.304Z,60.10
2022-08-31T00:52:38.963Z,60.20
2022-08-31T00:55:20.327Z,60.20
2022-08-31T00:57:51.366Z,60.20
2022-08-31T01:00:22.449Z,60.30
2022-08-31T01:02:49.692Z,60.50
2022-08-31T01:05:17.948Z,60.40
2022-08-31T01:07:47.808Z,60.60
2022-08-31T01:10:17.319Z,60.70
2022-08-31T01:12:47.440Z,60.70
2022-08-31T01:15:17.758Z,60.80
2022-08-31T01:17:46.595Z,60.80
2022-08-31T01:20:24.757Z,60.90
2022-08-31T01:23:09.494Z,61.10
2022-08-31T01:25:38.391Z,60.90
2022-08-31T01:28:08.222Z,61.10
2022-08-31T01:30:36.182Z,61.20
2022-08-31T01:33:04.198Z,61.10
2022-08-31T01:35:31.306Z,61.20
2022-08-31T01:37:58.733Z,61.30
2022-08-31T01:40:34.868Z,61.50
2022-08-31T01:43:01.768Z,61.70
2022-08-31T01:45:29.053Z,61.70
2022-08-31T01:47:55.936Z,61.90
2022-08-31T01:50:22.779Z,61.90
2022-08-31T01:52:49.497Z,61.70
2022-08-31T01:55:16.426Z,61.70
2022-08-31T01:57:43.151Z,61.80
2022-08-31T02:00:10.560Z,62.00
2022-08-31T02:02:37.939Z,62.10
2022-08-31T02:05:07.384Z,63.10
2022-08-31T02:07:34.548Z,62.30
2022-08-31T02:10:01.301Z,62.30
2022-08-31T02:12:28.072Z,62.50
2022-08-31T02:14:55.037Z,62.50
2022-08-31T02:17:22.673Z,62.70
2022-08-31T02:19:50.136Z,62.70
2022-08-31T02:22:17.191Z,62.80
2022-08-31T02:24:44.246Z,62.90
2022-08-31T02:27:10.942Z,63.00
2022-08-31T02:29:39.657Z,62.90
2022-08-31T02:32:06.996Z,63.10
2022-08-31T02:34:34.041Z,63.20
2022-08-31T02:37:00.967Z,63.20
2022-08-31T02:39:27.980Z,63.40
2022-08-31T02:41:54.719Z,63.20
2022-08-31T02:44:21.491Z,63.30
2022-08-31T02:46:48.417Z,63.30
2022-08-31T02:49:15.321Z,63.40
2022-08-31T02:51:42.699Z,63.30
2022-08-31T02:54:10.829Z,63.50
2022-08-31T02:56:38.401Z,63.40
2022-08-31T02:59:05.930Z,63.50
2022-08-31T03:01:33.103Z,63.60
2022-08-31T03:04:00.903Z,63.50
2022-08-31T03:06:29.777Z,63.60
2022-08-31T03:08:56.705Z,63.60
2022-08-31T03:11:23.559Z,63.60
2022-08-31T03:13:50.374Z,63.70
2022-08-31T03:16:17.412Z,63.80
2022-08-31T03:18:44.332Z,63.80
2022-08-31T03:21:11.135Z,63.80
2022-08-31T03:23:38.133Z,63.70
2022-08-31T03:26:05.967Z,63.80
2022-08-31T03:28:34.387Z,63.90
2022-08-31T03:31:01.564Z,63.90
2022-08-31T03:33:28.322Z,63.90
2022-08-31T03:35:55.212Z,63.90
2022-08-31T03:38:22.060Z,63.90
2022-08-31T03:40:50.886Z,64.80
2022-08-31T03:43:18.371Z,63.90
2022-08-31T03:45:45.296Z,63.90
2022-08-31T03:48:13.195Z,63.90
2022-08-31T03:50:42.380Z,63.90
2022-08-31T03:53:09.938Z,64.80
2022-08-31T03:55:39.287Z,64.00
2022-08-31T03:58:08.476Z,63.80
2022-08-31T04:00:36.874Z,63.90
2022-08-31T04:03:04.182Z,64.00
2022-08-31T04:05:34.126Z,63.90
2022-08-31T04:08:01.118Z,63.90
2022-08-31T04:10:27.886Z,63.80
2022-08-31T04:12:54.712Z,63.80
2022-08-31T04:15:22.453Z,63.90
2022-08-31T04:17:49.279Z,63.70
2022-08-31T04:20:24.446Z,63.80
2022-08-31T04:22:56.474Z,63.90
2022-08-31T04:25:23.238Z,63.70
2022-08-31T04:27:50.422Z,63.70
2022-08-31T04:30:18.040Z,63.80
2022-08-31T04:32:44.992Z,63.70
2022-08-31T04:35:14.696Z,63.70
2022-08-31T04:37:46.867Z,63.90
2022-08-31T04:40:25.403Z,63.80
2022-08-31T04:42:52.936Z,63.80
2022-08-31T04:45:19.889Z,63.70
2022-08-31T04:47:46.753Z,63.80
2022-08-31T04:50:15.431Z,63.80
2022-08-31T04:52:43.527Z,63.90
2022-08-31T04:55:11.678Z,63.90
2022-08-31T04:57:47.137Z,64.00
2022-08-31T05:00:14.967Z,64.00
2022-08-31T05:02:50.025Z,64.10
2022-08-31T05:05:19.574Z,64.00
2022-08-31T05:07:46.442Z,64.00
2022-08-31T05:10:13.278Z,64.10
2022-08-31T05:12:39.995Z,64.10
2022-08-31T05:15:07.332Z,64.10
2022-08-31T05:17:34.205Z,64.10
2022-08-31T05:20:01.135Z,64.10
2022-08-31T05:22:30.061Z,64.10
2022-08-31T05:24:56.860Z,64.30
2022-08-31T05:27:23.687Z,64.20
2022-08-31T05:29:50.674Z,64.20
2022-08-31T05:32:17.435Z,64.20
2022-08-31T05:34:45.544Z,64.30
2022-08-31T05:37:15.645Z,64.30
2022-08-31T05:39:42.360Z,64.30
2022-08-31T05:42:09.222Z,64.30
2022-08-31T05:44:37.937Z,64.30
2022-08-31T05:47:09.576Z,64.20
2022-08-31T05:49:36.772Z,64.30
2022-08-31T05:52:05.633Z,64.20
2022-08-31T05:54:36.606Z,64.00
2022-08-31T05:57:05.259Z,64.10
2022-08-31T05:59:33.678Z,64.00
2022-08-31T06:02:04.082Z,64.10
2022-08-31T06:04:31.265Z,64.00
2022-08-31T06:06:58.297Z,63.90
2022-08-31T06:09:25.316Z,63.90
2022-08-31T06:11:54.388Z,63.90
2022-08-31T06:14:22.972Z,63.80
2022-08-31T06:16:50.982Z,63.80
2022-08-31T06:19:19.561Z,63.60
2022-08-31T06:21:50.265Z,63.60
2022-08-31T06:24:18.950Z,63.60
2022-08-31T06:26:56.915Z,63.50
2022-08-31T06:29:25.354Z,63.50
2022-08-31T06:31:52.388Z,63.40
2022-08-31T06:34:20.113Z,63.30
2022-08-31T06:36:48.244Z,63.30
2022-08-31T06:39:16.063Z,63.10
2022-08-31T06:41:42.849Z,63.00
2022-08-31T06:44:12.599Z,63.00
2022-08-31T06:46:40.415Z,62.90
2022-08-31T06:49:09.286Z,62.70
2022-08-31T06:51:43.234Z,62.50
2022-08-31T06:54:29.903Z,62.40
2022-08-31T06:56:58.619Z,62.50
2022-08-31T06:59:28.830Z,62.50
2022-08-31T07:01:57.098Z,62.30
2022-08-31T07:04:24.582Z,62.10
2022-08-31T07:06:53.900Z,61.90
2022-08-31T07:09:20.836Z,61.80
2022-08-31T07:11:50.311Z,61.60
2022-08-31T07:14:22.146Z,61.40
2022-08-31T07:16:50.296Z,61.40
2022-08-31T07:19:19.525Z,61.20
2022-08-31T07:21:49.253Z,61.10
2022-08-31T07:24:24.571Z,60.90
2022-08-31T07:26:58.338Z,60.80
2022-08-31T07:29:30.406Z,61.00
2022-08-31T07:32:00.477Z,60.70
2022-08-31T07:34:30.423Z,60.80
2022-08-31T07:37:18.776Z,60.50
2022-08-31T07:40:08.140Z,59.10
2022-08-31T07:42:39.156Z,58.10
2022-08-31T07:45:12.685Z,55.90
2022-08-31T07:47:45.375Z,54.80
2022-08-31T07:50:14.161Z,53.60
2022-08-31T07:52:48.568Z,52.80
2022-08-31T07:55:18.953Z,51.30
2022-08-31T07:57:46.355Z,50.70
2022-08-31T08:00:20.873Z,50.20
2022-08-31T08:02:52.743Z,49.50
2022-08-31T08:05:27.088Z,48.60
2022-08-31T08:07:57.885Z,48.10
2022-08-31T08:10:26.413Z,47.50
2022-08-31T08:13:04.832Z,47.40
2022-08-31T08:15:35.730Z,47.30
2022-08-31T08:18:04.310Z,47.20
2022-08-31T08:20:37.244Z,47.30
2022-08-31T08:23:15.151Z,47.20
2022-08-31T08:25:47.261Z,47.40
2022-08-31T08:31:06.666Z,47.80
2022-08-31T08:33:35.677Z,48.20
2022-08-31T08:36:07.784Z,48.20
2022-08-31T08:38:38.182Z,48.10
2022-08-31T08:41:16.065Z,48.20
2022-08-31T08:43:52.400Z,48.60
2022-08-31T08:46:37.667Z,48.70
2022-08-31T08:49:28.782Z,48.70
2022-08-31T08:52:03.751Z,48.80
2022-08-31T08:54:38.054Z,48.60
2022-08-31T08:57:14.755Z,48.40
2022-08-31T08:59:43.719Z,48.50
2022-08-31T09:02:19.156Z,48.30
2022-08-31T09:05:15.139Z,48.10
2022-08-31T09:08:11.564Z,48.80
2022-08-31T09:10:45.618Z,48.10
2022-08-31T09:13:21.782Z,48.20
2022-08-31T09:15:48.594Z,47.90
2022-08-31T09:18:40.686Z,48.00
2022-08-31T09:21:22.253Z,47.70
2022-08-31T09:23:55.988Z,47.40
2022-08-31T09:26:25.993Z,47.40
2022-08-31T09:28:52.965Z,47.40
2022-08-31T09:31:43.605Z,47.00
2022-08-31T09:34:31.301Z,47.30
2022-08-31T09:37:15.903Z,47.30
2022-08-31T09:39:49.224Z,47.30
2022-08-31T09:42:32.166Z,46.90
2022-08-31T09:45:07.155Z,46.50
2022-08-31T09:47:55.950Z,46.60
2022-08-31T09:50:29.233Z,46.70
2022-08-31T09:53:30.163Z,46.30
2022-08-31T09:56:24.449Z,46.40
2022-08-31T09:58:53.339Z,46.60
2022-08-31T10:01:25.048Z,45.80
2022-08-31T10:04:09.385Z,46.40
2022-08-31T10:06:55.360Z,46.10
2022-08-31T10:09:36.210Z,45.90
2022-08-31T10:12:11.105Z,45.50
2022-08-31T10:14:50.582Z,45.20
2022-08-31T10:18:04.114Z,44.70
2022-08-31T10:20:39.648Z,44.40
2022-08-31T10:23:20.828Z,44.00
2022-08-31T10:25:58.962Z,43.80
2022-08-31T10:28:43.730Z,43.80
2022-08-31T10:31:23.818Z,44.00
2022-08-31T10:34:14.248Z,43.80
2022-08-31T10:36:42.585Z,43.40
2022-08-31T10:39:32.513Z,43.50
2022-08-31T10:42:05.461Z,43.50
2022-08-31T10:44:39.620Z,43.10
2022-08-31T10:47:07.532Z,43.00
2022-08-31T10:49:41.102Z,43.60
2022-08-31T10:52:21.999Z,43.80
2022-08-31T10:55:23.606Z,43.40
2022-08-31T10:58:27.730Z,43.40
2022-08-31T11:01:23.644Z,43.50
2022-08-31T11:04:20.137Z,42.70
2022-08-31T11:07:28.111Z,42.40
2022-08-31T11:10:12.068Z,42.90
2022-08-31T11:12:49.445Z,42.40
2022-08-31T11:15:40.353Z,42.00
2022-08-31T11:18:25.191Z,41.40
2022-08-31T11:21:35.240Z,41.60
2022-08-31T11:24:37.117Z,41.80
2022-08-31T11:27:14.476Z,41.50
2022-08-31T11:29:56.574Z,41.60
2022-08-31T11:32:39.650Z,41.40
2022-08-31T11:35:10.482Z,40.70
2022-08-31T11:38:00.530Z,40.90
2022-08-31T11:40:42.209Z,40.40
2022-08-31T11:43:15.381Z,40.40
2022-08-31T11:45:43.258Z,40.10
2022-08-31T11:48:51.513Z,40.60
2022-08-31T11:51:40.971Z,40.10
2022-08-31T11:54:43.050Z,39.50
2022-08-31T11:57:15.507Z,39.40
2022-08-31T11:59:45.699Z,39.20
2022-08-31T12:02:22.864Z,39.10
2022-08-31T12:04:58.904Z,38.70
2022-08-31T12:07:41.239Z,38.50
2022-08-31T12:10:29.687Z,38.60
2022-08-31T12:13:09.087Z,38.60
2022-08-31T12:16:01.183Z,38.40
2022-08-31T12:18:38.478Z,38.40
2022-08-31T12:21:56.326Z,38.40
2022-08-31T12:24:49.153Z,39.00
2022-08-31T12:27:35.000Z,38.60
2022-08-31T12:30:22.505Z,38.40
2022-08-31T12:33:01.854Z,38.10
2022-08-31T12:35:32.057Z,37.60
2022-08-31T12:38:16.138Z,37.40
2022-08-31T12:40:50.416Z,37.10
2022-08-31T12:43:22.455Z,37.20
2022-08-31T12:46:01.760Z,37.10
2022-08-31T12:48:34.304Z,37.60
2022-08-31T12:51:31.634Z,37.20
2022-08-31T12:54:05.432Z,37.00
2022-08-31T12:56:35.216Z,36.50
2022-08-31T12:59:20.643Z,36.50
2022-08-31T13:01:49.850Z,36.60
2022-08-31T13:04:18.937Z,36.20
2022-08-31T13:06:48.480Z,36.30
2022-08-31T13:09:26.442Z,36.50
2022-08-31T13:11:56.449Z,36.60
2022-08-31T13:14:26.910Z,36.30
2022-08-31T13:17:17.578Z,35.90
2022-08-31T13:19:48.222Z,35.80
2022-08-31T13:22:24.514Z,36.10
2022-08-31T13:24:54.026Z,35.90
2022-08-31T13:27:23.099Z,35.50
2022-08-31T13:29:50.959Z,35.70
2022-08-31T13:32:34.345Z,35.60
2022-08-31T13:35:10.722Z,35.40
2022-08-31T13:38:07.877Z,35.70
2022-08-31T13:40:39.437Z,35.90
2022-08-31T13:43:09.515Z,35.80
2022-08-31T13:45:57.857Z,36.40
2022-08-31T13:48:53.465Z,36.00
2022-08-31T13:51:21.300Z,35.90
2022-08-31T13:54:06.866Z,35.60
2022-08-31T13:56:57.634Z,35.90
2022-08-31T13:59:30.478Z,35.50
2022-08-31T14:02:19.543Z,35.40
2022-08-31T14:05:05.322Z,35.50
2022-08-31T14:07:44.003Z,35.40
2022-08-31T14:10:19.828Z,35.40
2022-08-31T14:13:18.296Z,35.30
2022-08-31T14:15:52.348Z,35.70
2022-08-31T14:18:29.835Z,35.60
2022-08-31T14:21:26.941Z,35.90
2022-08-31T14:24:02.493Z,35.50
2022-08-31T14:26:37.132Z,35.50
2022-08-31T14:29:12.110Z,35.80
2022-08-31T14:31:41.647Z,35.50
2022-08-31T14:34:23.325Z,35.50
2022-08-31T14:36:55.850Z,35.60
2022-08-31T14:39:38.121Z,35.40
2022-08-31T14:42:17.115Z,35.60
2022-08-31T14:44:52.882Z,35.60
2022-08-31T14:47:24.187Z,35.40
2022-08-31T14:49:52.180Z,35.50
2022-08-31T14:52:18.940Z,35.40
2022-08-31T14:54:46.062Z,35.20
2022-08-31T14:57:17.969Z,35.20
2022-08-31T14:59:46.839Z,35.20
2022-08-31T15:02:21.194Z,35.20
2022-08-31T15:04:48.999Z,34.70
2022-08-31T15:07:18.576Z,35.10
2022-08-31T15:09:47.804Z,35.30
2022-08-31T15:12:17.116Z,35.40
2022-08-31T15:14:45.287Z,35.60
2022-08-31T15:17:18.904Z,35.80
2022-08-31T15:19:46.261Z,35.80
2022-08-31T15:22:15.850Z,35.90
2022-08-31T15:24:44.927Z,35.90
2022-08-31T15:27:16.181Z,35.70
2022-08-31T15:29:45.512Z,35.60
2022-08-31T15:32:16.737Z,35.90
2022-08-31T15:34:58.451Z,36.00
2022-08-31T15:37:31.900Z,36.20
2022-08-31T15:40:00.754Z,35.90
2022-08-31T15:42:29.505Z,35.90
2022-08-31T15:44:56.810Z,36.40
2022-08-31T15:47:51.655Z,36.50
2022-08-31T15:50:21.048Z,37.10
2022-08-31T15:52:50.941Z,37.00
2022-08-31T15:55:23.530Z,37.10
2022-08-31T15:57:54.050Z,36.80
2022-08-31T16:00:26.040Z,36.80
2022-08-31T16:02:57.575Z,37.20
2022-08-31T16:05:28.334Z,37.20
2022-08-31T16:07:57.359Z,37.20
2022-08-31T16:10:24.749Z,37.50
2022-08-31T16:12:52.077Z,37.60
2022-08-31T16:15:22.283Z,37.80
2022-08-31T16:17:57.708Z,37.70
2022-08-31T16:20:27.447Z,37.70
2022-08-31T16:22:55.234Z,37.70
2022-08-31T16:25:22.205Z,37.80
2022-08-31T16:27:48.940Z,38.10
2022-08-31T16:30:16.072Z,38.00
2022-08-31T16:32:42.891Z,38.10
2022-08-31T16:35:10.495Z,38.30
2022-08-31T16:37:37.747Z,38.40
2022-08-31T16:40:05.163Z,38.40
2022-08-31T16:42:32.038Z,38.40
2022-08-31T16:45:02.325Z,38.50
2022-08-31T16:47:29.891Z,38.50
2022-08-31T16:49:59.045Z,38.50
2022-08-31T16:52:30.792Z,38.50
2022-08-31T16:54:57.752Z,38.80
2022-08-31T16:57:32.486Z,38.80
2022-08-31T17:00:00.169Z,38.80
2022-08-31T17:02:27.918Z,39.00
2022-08-31T17:05:00.597Z,39.00
2022-08-31T17:07:29.080Z,39.10
2022-08-31T17:10:07.338Z,39.30
2022-08-31T17:12:37.555Z,39.50
2022-08-31T17:15:04.957Z,39.70
2022-08-31T17:17:34.794Z,39.90
2022-08-31T17:20:04.127Z,40.10
2022-08-31T17:22:33.347Z,40.20
2022-08-31T17:25:04.834Z,40.30
2022-08-31T17:27:33.954Z,40.40
2022-08-31T17:30:03.602Z,40.60
2022-08-31T17:32:30.491Z,40.60
2022-08-31T17:34:57.744Z,40.80
2022-08-31T17:37:32.509Z,41.00
2022-08-31T17:39:59.976Z,41.20
2022-08-31T17:42:28.155Z,41.30
2022-08-31T17:44:56.858Z,41.50
2022-08-31T17:47:25.139Z,41.80
2022-08-31T17:49:52.751Z,41.90
2022-08-31T17:52:21.904Z,42.10
2022-08-31T17:54:51.495Z,42.20
2022-08-31T17:57:23.459Z,42.50
2022-08-31T17:59:50.444Z,42.60
2022-08-31T18:02:33.092Z,42.80
2022-08-31T18:05:01.035Z,43.00
2022-08-31T18:07:28.091Z,43.10
2022-08-31T18:09:54.869Z,43.40
2022-08-31T18:12:22.858Z,43.50
2022-08-31T18:14:49.839Z,43.70
2022-08-31T18:17:17.413Z,43.80
2022-08-31T18:19:45.292Z,44.20
2022-08-31T18:22:14.518Z,44.30
2022-08-31T18:24:42.984Z,44.40
2022-08-31T18:27:11.504Z,44.50
2022-08-31T18:29:39.249Z,44.70
2022-08-31T18:32:07.941Z,44.80
2022-08-31T18:34:40.228Z,45.00
2022-08-31T18:37:09.309Z,45.20
2022-08-31T18:39:59.022Z,45.20
2022-08-31T18:42:46.453Z,45.30
2022-08-31T18:45:16.746Z,45.40
2022-08-31T18:47:56.910Z,45.50
2022-08-31T18:50:35.134Z,45.70
2022-08-31T18:53:11.230Z,45.70
2022-08-31T18:55:43.775Z,45.90
2022-08-31T18:58:11.142Z,46.10
2022-08-31T19:00:40.236Z,46.10
2022-08-31T19:03:07.629Z,46.30
2022-08-31T19:05:38.456Z,46.40
2022-08-31T19:08:05.430Z,46.60
2022-08-31T19:10:32.263Z,46.60
2022-08-31T19:13:01.185Z,46.70
2022-08-31T19:15:35.811Z,46.90
2022-08-31T19:18:05.370Z,47.10
2022-08-31T19:20:33.356Z,47.10
2022-08-31T19:23:00.564Z,47.30
2022-08-31T19:25:28.184Z,47.30
2022-08-31T19:27:55.849Z,47.40
2022-08-31T19:30:27.906Z,47.50
2022-08-31T19:32:56.353Z,47.70
2022-08-31T19:35:25.878Z,47.70
2022-08-31T19:37:53.904Z,47.70
2022-08-31T19:40:21.331Z,47.80
2022-08-31T19:45:45.136Z,48.00
2022-08-31T19:48:13.584Z,48.00
2022-08-31T19:50:41.864Z,48.10
2022-08-31T19:53:12.086Z,48.10
2022-08-31T19:55:50.048Z,48.20
2022-08-31T19:58:18.588Z,48.20
2022-08-31T20:00:48.294Z,48.20
2022-08-31T20:03:16.304Z,48.30
2022-08-31T20:05:43.605Z,48.20
2022-08-31T20:08:12.217Z,48.00
2022-08-31T20:10:43.506Z,48.10
2022-08-31T20:13:12.480Z,48.30
2022-08-31T20:15:44.579Z,48.10
2022-08-31T20:18:12.745Z,48.00
2022-08-31T20:20:45.523Z,47.90
2022-08-31T20:23:25.419Z,48.10
2022-08-31T20:25:53.404Z,47.90
2022-08-31T20:28:26.574Z,48.00
2022-08-31T20:31:09.849Z,48.10
2022-08-31T20:33:37.642Z,48.20
2022-08-31T20:36:29.146Z,48.30
2022-08-31T20:39:04.447Z,48.30
2022-08-31T20:41:34.934Z,48.60
2022-08-31T20:44:10.528Z,48.70
2022-08-31T20:47:03.557Z,48.90
2022-08-31T20:49:33.618Z,49.00
2022-08-31T20:52:01.928Z,49.00
2022-08-31T20:54:33.333Z,49.20
2022-08-31T20:57:03.724Z,49.30
2022-08-31T20:59:31.411Z,49.30
2022-08-31T21:02:03.397Z,49.30
2022-08-31T21:04:32.389Z,49.50
2022-08-31T21:07:02.345Z,49.50
2022-08-31T21:09:29.757Z,49.70
2022-08-31T21:12:01.338Z,49.80
2022-08-31T21:14:29.453Z,49.60
2022-08-31T21:16:56.743Z,49.80
2022-08-31T21:19:24.779Z,49.90
2022-08-31T21:21:56.158Z,49.80
2022-08-31T21:24:23.239Z,49.80
2022-08-31T21:26:59.393Z,49.90
2022-08-31T21:29:28.303Z,50.00
2022-08-31T21:32:03.445Z,50.10
2022-08-31T21:34:30.506Z,50.00
2022-08-31T21:36:57.340Z,50.10
2022-08-31T21:39:24.852Z,50.20
2022-08-31T21:41:51.935Z,50.30
2022-08-31T21:44:23.079Z,50.40
2022-08-31T21:46:51.008Z,50.40
2022-08-31T21:49:19.017Z,50.30
2022-08-31T21:51:52.582Z,50.30
2022-08-31T21:54:22.498Z,50.60
2022-08-31T21:56:55.545Z,50.60
2022-08-31T21:59:27.634Z,50.80
2022-08-31T22:02:00.222Z,50.70
2022-08-31T22:04:31.993Z,50.70
2022-08-31T22:06:59.535Z,50.70
2022-08-31T22:09:28.862Z,50.70
2022-08-31T22:11:58.292Z,50.60
2022-08-31T22:14:29.719Z,50.70
2022-08-31T22:16:58.602Z,50.70
2022-08-31T22:19:28.609Z,50.80
2022-08-31T22:22:00.489Z,50.80
2022-08-31T22:24:31.169Z,50.90
2022-08-31T22:27:00.039Z,50.80
2022-08-31T22:29:29.967Z,50.90
2022-08-31T22:31:59.768Z,50.90
2022-08-31T22:34:27.230Z,51.10
2022-08-31T22:36:55.351Z,51.30
2022-08-31T22:39:26.800Z,51.10
2022-08-31T22:41:54.868Z,51.40
2022-08-31T22:44:24.925Z,51.40
2022-08-31T22:46:53.123Z,51.40
2022-08-31T22:49:20.294Z,51.50
2022-08-31T22:51:48.439Z,51.70
2022-08-31T22:54:17.886Z,51.80
2022-08-31T22:56:45.377Z,52.10
2022-08-31T22:59:15.987Z,52.10
2022-08-31T23:01:49.965Z,52.10
2022-08-31T23:04:21.569Z,52.40
2022-08-31T23:06:50.438Z,52.50
2022-08-31T23:09:27.056Z,52.70
2022-08-31T23:11:55.605Z,52.70
2022-08-31T23:14:22.870Z,52.80
2022-08-31T23:16:55.136Z,53.00
2022-08-31T23:19:26.506Z,53.20
2022-08-31T23:21:56.880Z,53.30
2022-08-31T23:24:32.147Z,53.40
2022-08-31T23:27:04.227Z,53.50
2022-08-31T23:29:51.859Z,53.60
2022-08-31T23:32:20.685Z,53.50
2022-08-31T23:34:50.665Z,53.80
2022-08-31T23:37:18.403Z,54.00
2022-08-31T23:39:46.218Z,54.00
2022-08-31T23:42:15.310Z,54.30
2022-08-31T23:44:43.680Z,54.50
2022-08-31T23:47:13.815Z,54.40
2022-08-31T23:49:42.624Z,54.70
2022-08-31T23:52:11.900Z,54.80
2022-08-31T23:54:39.243Z,55.10
2022-08-31T23:57:31.422Z,55.20
